createdAt,value
2023-01-29T00:01:48.137Z,39.59
2023-01-29T00:05:49.483Z,39.21
2023-01-29T00:09:50.829Z,39.29
2023-01-29T00:13:52.934Z,38.92
2023-01-29T00:17:54.323Z,39.41
2023-01-29T00:21:55.736Z,39.62
2023-01-29T00:25:59.980Z,39.35
2023-01-29T00:30:12.694Z,38.82
2023-01-29T00:34:14.015Z,39.50
2023-01-29T00:38:15.527Z,39.88
2023-01-29T00:42:35.521Z,39.75
2023-01-29T00:46:36.992Z,39.48
2023-01-29T00:50:38.350Z,39.46
2023-01-29T00:54:39.708Z,39.01
2023-01-29T00:58:40.977Z,39.24
2023-01-29T01:03:01.249Z,39.55
2023-01-29T01:07:02.576Z,39.76
2023-01-29T01:11:06.341Z,39.19
2023-01-29T01:15:08.059Z,39.29
2023-01-29T01:19:09.957Z,39.54
2023-01-29T01:23:11.234Z,39.64
2023-01-29T01:27:13.352Z,39.34
2023-01-29T01:31:15.517Z,39.30
2023-01-29T01:35:17.178Z,39.69
2023-01-29T01:39:18.612Z,39.66
2023-01-29T01:43:19.969Z,39.75
2023-01-29T01:47:27.888Z,39.91
2023-01-29T01:51:32.119Z,39.66
2023-01-29T01:55:35.799Z,39.84
2023-01-29T01:59:40.070Z,40.07
2023-01-29T02:04:14.456Z,40.12
2023-01-29T02:08:41.401Z,40.19
2023-01-29T02:12:45.302Z,39.84
2023-01-29T02:16:46.684Z,40.66
2023-01-29T02:21:29.163Z,40.33
2023-01-29T02:25:55.409Z,40.36
2023-01-29T02:30:13.724Z,40.37
2023-01-29T02:34:28.641Z,40.02
2023-01-29T02:38:49.582Z,39.89
2023-01-29T02:42:55.824Z,40.36
2023-01-29T02:47:03.169Z,40.79
2023-01-29T02:51:11.342Z,41.58
2023-01-29T02:55:19.229Z,40.57
2023-01-29T02:59:25.365Z,41.42
2023-01-29T03:03:41.783Z,40.82
2023-01-29T03:07:51.920Z,40.47
2023-01-29T03:11:58.804Z,41.26
2023-01-29T03:16:11.403Z,41.07
2023-01-29T03:20:17.646Z,40.81
2023-01-29T03:24:45.048Z,40.38
2023-01-29T03:29:06.408Z,40.55
2023-01-29T03:33:11.120Z,40.67
2023-01-29T03:37:36.015Z,40.65
2023-01-29T03:41:53.638Z,40.63
2023-01-29T03:46:04.862Z,40.79
2023-01-29T03:50:24.610Z,40.78
2023-01-29T03:54:39.220Z,40.81
2023-01-29T03:58:48.225Z,39.79
2023-01-29T04:03:14.248Z,40.01
2023-01-29T04:07:23.728Z,40.10
2023-01-29T04:11:27.306Z,39.92
2023-01-29T04:15:33.870Z,40.67
2023-01-29T04:19:35.882Z,40.39
2023-01-29T04:23:37.220Z,41.03
2023-01-29T04:27:52.042Z,40.59
2023-01-29T04:32:35.232Z,40.60
2023-01-29T04:36:51.512Z,40.58
2023-01-29T04:41:01.320Z,40.71
2023-01-29T04:45:31.186Z,40.42
2023-01-29T04:49:41.203Z,39.98
2023-01-29T04:53:45.620Z,40.66
2023-01-29T04:58:24.512Z,39.86
2023-01-29T05:02:28.051Z,40.77
2023-01-29T05:06:31.538Z,40.56
2023-01-29T05:10:34.224Z,41.03
2023-01-29T05:14:37.726Z,40.51
2023-01-29T05:18:39.062Z,40.50
2023-01-29T05:22:41.739Z,40.97
2023-01-29T05:27:03.571Z,40.78
2023-01-29T05:31:05.019Z,40.68
2023-01-29T05:35:06.787Z,41.11
2023-01-29T05:39:08.135Z,41.23
2023-01-29T05:43:16.476Z,40.41
2023-01-29T05:47:21.249Z,40.73
2023-01-29T05:51:22.707Z,41.07
2023-01-29T05:55:23.998Z,40.94
2023-01-29T05:59:25.411Z,41.46
2023-01-29T06:03:26.695Z,40.29
2023-01-29T06:07:28.048Z,40.99
2023-01-29T06:11:29.582Z,41.57
2023-01-29T06:15:30.894Z,41.46
2023-01-29T06:19:32.256Z,40.40
2023-01-29T06:23:33.660Z,40.24
2023-01-29T06:27:35.176Z,41.10
2023-01-29T06:31:39.368Z,40.98
2023-01-29T06:35:41.152Z,40.08
2023-01-29T06:39:42.426Z,41.20
2023-01-29T06:43:44.887Z,40.78
2023-01-29T06:47:46.283Z,40.72
2023-01-29T06:51:47.578Z,40.08
2023-01-29T06:55:52.840Z,40.58
2023-01-29T06:59:54.229Z,40.06
2023-01-29T07:03:55.715Z,40.39
2023-01-29T07:07:57.635Z,40.14
2023-01-29T07:11:58.998Z,40.07
2023-01-29T07:16:02.981Z,41.08
2023-01-29T07:20:06.007Z,40.29
2023-01-29T07:24:07.650Z,40.18
2023-01-29T07:28:09.147Z,40.44
2023-01-29T07:32:10.567Z,40.11
2023-01-29T07:36:13.087Z,41.09
2023-01-29T07:40:15.062Z,40.37
2023-01-29T07:44:16.825Z,39.78
2023-01-29T07:48:18.539Z,40.24
2023-01-29T07:52:22.154Z,40.01
2023-01-29T07:56:23.815Z,39.13
2023-01-29T08:00:25.575Z,39.37
2023-01-29T08:04:26.888Z,39.64
2023-01-29T08:08:28.161Z,39.65
2023-01-29T08:12:29.523Z,39.08
2023-01-29T08:16:30.927Z,38.63
2023-01-29T08:20:32.539Z,38.73
2023-01-29T08:24:47.562Z,39.10
2023-01-29T08:28:55.334Z,38.70
2023-01-29T08:32:56.855Z,39.06
2023-01-29T08:36:58.489Z,38.62
2023-01-29T08:40:59.864Z,38.76
2023-01-29T08:45:01.187Z,40.16
2023-01-29T08:49:03.186Z,40.90
2023-01-29T08:53:09.806Z,39.33
2023-01-29T08:57:11.170Z,40.03
2023-01-29T09:01:14.237Z,39.42
2023-01-29T09:05:15.888Z,39.18
2023-01-29T09:09:18.327Z,39.65
2023-01-29T09:13:19.727Z,39.52
2023-01-29T09:17:21.390Z,40.41
2023-01-29T09:21:22.661Z,39.40
2023-01-29T09:25:24.036Z,38.57
2023-01-29T09:29:25.377Z,38.21
2023-01-29T09:33:26.871Z,37.75
2023-01-29T09:37:28.244Z,38.66
2023-01-29T09:41:45.287Z,38.24
2023-01-29T09:45:58.175Z,38.13
2023-01-29T09:50:04.903Z,38.22
2023-01-29T09:54:19.734Z,37.93
2023-01-29T09:58:39.725Z,36.99
2023-01-29T10:02:58.969Z,39.15
2023-01-29T10:07:19.327Z,37.73
2023-01-29T10:11:48.838Z,38.08
2023-01-29T10:16:22.852Z,37.81
2023-01-29T10:20:52.967Z,37.81
2023-01-29T10:25:00.447Z,36.79
2023-01-29T10:29:06.784Z,36.44
2023-01-29T10:33:19.078Z,35.68
2023-01-29T10:37:30.830Z,35.89
2023-01-29T10:41:54.075Z,37.17
2023-01-29T10:46:04.581Z,35.80
2023-01-29T10:50:16.304Z,35.55
2023-01-29T10:54:30.041Z,35.52
2023-01-29T10:58:34.514Z,37.69
2023-01-29T11:02:35.887Z,37.57
2023-01-29T11:06:37.446Z,36.80
2023-01-29T11:11:08.338Z,37.10
2023-01-29T11:15:18.735Z,36.29
2023-01-29T11:19:37.485Z,35.60
2023-01-29T11:23:38.799Z,34.88
2023-01-29T11:27:45.421Z,36.08
2023-01-29T11:31:47.114Z,37.38
2023-01-29T11:35:48.508Z,37.18
2023-01-29T11:39:50.585Z,37.00
2023-01-29T11:43:51.864Z,36.82
2023-01-29T11:47:55.861Z,35.62
2023-01-29T11:52:01.914Z,35.35
2023-01-29T11:56:16.153Z,34.76
2023-01-29T12:00:28.420Z,34.59
2023-01-29T12:04:30.303Z,34.39
2023-01-29T12:08:38.400Z,35.71
2023-01-29T12:12:42.275Z,34.96
2023-01-29T12:16:58.488Z,35.03
2023-01-29T12:21:23.873Z,34.67
2023-01-29T12:25:38.438Z,33.99
2023-01-29T12:29:52.811Z,33.89
2023-01-29T12:34:05.448Z,34.26
2023-01-29T12:38:21.794Z,34.33
2023-01-29T12:42:24.486Z,35.28
2023-01-29T12:46:33.855Z,34.44
2023-01-29T12:50:37.489Z,34.70
2023-01-29T12:54:49.152Z,33.98
2023-01-29T12:58:55.643Z,35.69
2023-01-29T13:03:20.990Z,34.68
2023-01-29T13:07:30.608Z,34.52
2023-01-29T13:11:42.592Z,34.72
2023-01-29T13:15:44.604Z,35.25
2023-01-29T13:19:50.769Z,35.09
2023-01-29T13:23:56.241Z,34.23
2023-01-29T13:27:57.775Z,35.46
2023-01-29T13:32:01.739Z,36.15
2023-01-29T13:36:03.684Z,35.61
2023-01-29T13:40:07.354Z,36.00
2023-01-29T13:44:21.042Z,35.44
2023-01-29T13:48:27.803Z,34.76
2023-01-29T13:52:35.786Z,34.51
2023-01-29T13:56:40.098Z,34.37
2023-01-29T14:00:41.369Z,34.62
2023-01-29T14:04:42.693Z,34.85
2023-01-29T14:08:45.235Z,34.19
2023-01-29T14:12:48.399Z,35.28
2023-01-29T14:16:49.970Z,33.80
2023-01-29T14:20:58.639Z,33.98
2023-01-29T14:25:03.836Z,34.09
2023-01-29T14:29:32.574Z,33.43
2023-01-29T14:33:38.482Z,33.86
2023-01-29T14:37:41.384Z,34.11
2023-01-29T14:41:43.009Z,34.62
2023-01-29T14:45:45.004Z,34.01
2023-01-29T14:49:59.445Z,34.20
2023-01-29T14:54:14.556Z,35.06
2023-01-29T14:58:23.689Z,33.82
2023-01-29T15:02:37.115Z,34.02
2023-01-29T15:06:46.370Z,33.37
2023-01-29T15:11:19.035Z,33.10
2023-01-29T15:15:52.560Z,33.17
2023-01-29T15:19:54.965Z,33.08
2023-01-29T15:24:06.938Z,33.22
2023-01-29T15:28:11.081Z,33.19
2023-01-29T15:32:29.834Z,32.54
2023-01-29T15:36:32.128Z,33.01
2023-01-29T15:40:34.688Z,33.12
2023-01-29T15:44:36.014Z,33.22
2023-01-29T15:48:43.464Z,33.06
2023-01-29T15:52:49.848Z,33.38
2023-01-29T15:56:53.069Z,33.44
2023-01-29T16:00:57.247Z,33.27
2023-01-29T16:04:59.291Z,33.27
2023-01-29T16:09:01.091Z,33.71
2023-01-29T16:13:03.129Z,34.16
2023-01-29T16:17:23.024Z,33.65
2023-01-29T16:21:33.832Z,33.75
2023-01-29T16:25:38.550Z,33.85
2023-01-29T16:29:40.008Z,33.89
2023-01-29T16:33:45.307Z,33.92
2023-01-29T16:37:48.840Z,34.09
2023-01-29T16:42:21.397Z,34.50
2023-01-29T16:46:26.120Z,33.61
2023-01-29T16:50:36.051Z,33.87
2023-01-29T16:54:43.214Z,34.57
2023-01-29T16:58:50.658Z,34.87
2023-01-29T17:02:56.422Z,35.06
2023-01-29T17:07:01.249Z,35.22
2023-01-29T17:11:03.157Z,34.54
2023-01-29T17:15:26.038Z,34.84
2023-01-29T17:19:30.009Z,34.73
2023-01-29T17:23:31.386Z,35.95
2023-01-29T17:27:32.801Z,35.44
2023-01-29T17:31:34.302Z,35.59
2023-01-29T17:35:38.004Z,35.67
2023-01-29T17:39:39.456Z,36.32
2023-01-29T17:43:41.029Z,36.23
2023-01-29T17:47:42.375Z,37.43
2023-01-29T17:51:43.740Z,36.15
2023-01-29T17:55:45.111Z,35.56
2023-01-29T17:59:46.775Z,36.23
2023-01-29T18:03:48.080Z,36.36
2023-01-29T18:07:52.127Z,36.05
2023-01-29T18:11:53.981Z,36.67
2023-01-29T18:15:55.794Z,35.93
2023-01-29T18:19:58.232Z,36.76
2023-01-29T18:23:59.704Z,35.82
2023-01-29T18:28:01.734Z,35.82
2023-01-29T18:32:03.969Z,35.43
2023-01-29T18:36:06.715Z,35.89
2023-01-29T18:40:09.831Z,35.11
2023-01-29T18:44:11.718Z,35.15
2023-01-29T18:48:14.102Z,36.08
2023-01-29T18:52:16.289Z,35.50
2023-01-29T18:56:17.808Z,35.40
2023-01-29T19:00:19.645Z,36.55
2023-01-29T19:04:21.069Z,35.90
2023-01-29T19:08:22.416Z,36.02
2023-01-29T19:12:23.864Z,36.28
2023-01-29T19:16:25.712Z,35.35
2023-01-29T19:20:27.140Z,36.28
2023-01-29T19:24:28.546Z,36.76
2023-01-29T19:28:29.983Z,35.65
2023-01-29T19:32:32.040Z,36.83
2023-01-29T19:36:33.454Z,36.48
2023-01-29T19:40:35.676Z,36.41
2023-01-29T19:44:39.101Z,36.12
2023-01-29T19:48:40.742Z,35.98
2023-01-29T19:52:51.217Z,36.13
2023-01-29T19:56:53.679Z,36.46
2023-01-29T20:01:00.300Z,36.19
2023-01-29T20:05:03.415Z,36.34
2023-01-29T20:09:05.471Z,37.25
2023-01-29T20:13:06.780Z,37.46
2023-01-29T20:17:08.239Z,36.62
2023-01-29T20:21:12.469Z,36.69
2023-01-29T20:25:14.116Z,37.23
2023-01-29T20:29:15.505Z,37.71
2023-01-29T20:33:16.842Z,38.32
2023-01-29T20:37:19.236Z,39.06
2023-01-29T20:41:21.132Z,39.38
2023-01-29T20:45:23.108Z,39.15
2023-01-29T20:49:24.416Z,39.31
2023-01-29T20:53:25.721Z,38.54
2023-01-29T20:57:27.331Z,38.81
2023-01-29T21:01:28.868Z,38.54
2023-01-29T21:05:30.307Z,39.13
2023-01-29T21:09:31.868Z,38.48
2023-01-29T21:13:33.663Z,39.23
2023-01-29T21:17:35.063Z,40.32
2023-01-29T21:21:36.468Z,38.31
2023-01-29T21:25:38.737Z,39.73
2023-01-29T21:29:40.153Z,39.27
2023-01-29T21:33:41.960Z,39.34
2023-01-29T21:37:43.387Z,38.14
2023-01-29T21:42:05.078Z,39.61
2023-01-29T21:46:13.789Z,39.55
2023-01-29T21:50:16.051Z,39.08
2023-01-29T21:54:18.080Z,39.31
2023-01-29T21:58:20.493Z,38.93
2023-01-29T22:02:22.965Z,38.26
2023-01-29T22:06:24.674Z,38.11
2023-01-29T22:10:26.130Z,39.56
2023-01-29T22:14:27.610Z,40.21
2023-01-29T22:18:28.908Z,39.96
2023-01-29T22:22:30.277Z,40.27
2023-01-29T22:26:32.114Z,40.09
2023-01-29T22:30:33.611Z,40.52
2023-01-29T22:34:34.975Z,40.74
2023-01-29T22:38:36.475Z,40.61
2023-01-29T22:42:37.811Z,40.95
2023-01-29T22:46:39.229Z,41.26
2023-01-29T22:50:41.474Z,40.28
2023-01-29T22:54:43.634Z,40.61
2023-01-29T22:58:45.031Z,40.71
2023-01-29T23:02:47.222Z,40.88
2023-01-29T23:06:48.559Z,40.74
2023-01-29T23:10:50.205Z,41.06
2023-01-29T23:14:51.503Z,41.10
2023-01-29T23:18:55.989Z,40.54
2023-01-29T23:22:57.431Z,40.73
2023-01-29T23:27:17.123Z,41.73
2023-01-29T23:31:18.575Z,40.70
2023-01-29T23:35:20.025Z,40.79
2023-01-29T23:39:21.451Z,41.33
2023-01-29T23:43:26.563Z,41.60
2023-01-29T23:47:27.889Z,41.74
2023-01-29T23:51:29.190Z,42.52
2023-01-29T23:55:30.509Z,41.69
2023-01-29T23:59:31.874Z,41.82
